Time;durP1;ratioP1;P1;durP2;ratioP2;P2;SDS_P1;SDS_P2;PMS_P1;PMS_P2;Temp;Humidity;BMP_temperature;BMP_pressure;BME280_temperature;BME280_humidity;BME280_pressure;Samples;Min_cycle;Max_cycle;Signal;HPM_P1;HPM_P2
2021/06/06 00:01:42;;;;;;;1.20;0.60;;;;;;;;;;5008081;28;20171;-63
2021/06/06 00:04:14;;;;;;;1.42;0.63;;;;;;;;;;5003826;28;20042;-62
2021/06/06 00:06:41;;;;;;;0.77;0.77;;;;;;;;;;5005529;28;20022;-63
2021/06/06 00:09:11;;;;;;;0.77;0.68;;;;;;;;;;5003138;28;20026;-62
2021/06/06 00:11:58;;;;;;;0.70;0.60;;;;;;;;;;5000585;28;20034;-62
2021/06/06 00:14:36;;;;;;;1.77;0.80;;;;;;;;;;5009133;28;20029;-62
2021/06/06 00:17:06;;;;;;;1.48;0.77;;;;;;;;;;5005744;28;20030;-62
2021/06/06 00:19:32;;;;;;;1.92;0.82;;;;;;;;;;5002180;28;20562;-62
2021/06/06 00:21:59;;;;;;;1.92;1.10;;;;;;;;;;5006903;28;20037;-62
2021/06/06 00:24:27;;;;;;;0.90;0.80;;;;;;;;;;5001413;28;20029;-62
2021/06/06 00:26:53;;;;;;;1.38;0.98;;;;;;;;;;5002068;28;20038;-62
2021/06/06 00:29:21;;;;;;;2.90;0.98;;;;;;;;;;5002159;28;20091;-62
2021/06/06 00:31:46;;;;;;;1.23;0.95;;;;;;;;;;5003146;28;20030;-62
2021/06/06 00:34:12;;;;;;;1.73;0.90;;;;;;;;;;5009077;28;20454;-62
2021/06/06 00:36:38;;;;;;;1.95;1.15;;;;;;;;;;5001729;28;20441;-62
2021/06/06 00:39:04;;;;;;;2.83;1.30;;;;;;;;;;5005049;28;20120;-61
2021/06/06 00:41:30;;;;;;;1.30;1.00;;;;;;;;;;5005689;28;20489;-62
2021/06/06 00:43:56;;;;;;;3.30;1.10;;;;;;;;;;5002814;28;20053;-62
2021/06/06 00:46:24;;;;;;;1.60;1.27;;;;;;;;;;4999688;28;20128;-62
2021/06/06 00:48:50;;;;;;;1.63;1.27;;;;;;;;;;5002365;28;20026;-62
2021/06/06 00:51:20;;;;;;;1.83;1.50;;;;;;;;;;5008434;28;20444;-62
2021/06/06 00:53:52;;;;;;;1.30;1.20;;;;;;;;;;5005057;28;20049;-62
2021/06/06 00:56:25;;;;;;;1.38;1.27;;;;;;;;;;5001434;28;20038;-62
2021/06/06 00:58:52;;;;;;;1.75;1.50;;;;;;;;;;5001481;28;20076;-62
2021/06/06 01:01:18;;;;;;;2.42;1.35;;;;;;;;;;5004804;28;20060;-62
2021/06/06 01:03:49;;;;;;;2.45;1.30;;;;;;;;;;4998755;28;20059;-62
2021/06/06 01:06:56;;;;;;;1.33;1.00;;;;;;;;;;5004515;28;20112;-62
2021/06/06 01:09:23;;;;;;;1.70;1.20;;;;;;;;;;4971348;28;20199;-62
2021/06/06 01:11:52;;;;;;;1.60;1.33;;;;;;;;;;5000357;28;20022;-62
2021/06/06 01:14:34;;;;;;;1.40;1.30;;;;;;;;;;5002893;28;20535;-62
2021/06/06 01:17:14;;;;;;;1.30;1.20;;;;;;;;;;4998370;28;20502;-61
2021/06/06 01:20:08;;;;;;;1.77;1.30;;;;;;;;;;5007588;28;20037;-62
2021/06/06 01:22:37;;;;;;;1.85;1.50;;;;;;;;;;5000248;28;20535;-62
2021/06/06 01:25:10;;;;;;;1.60;1.50;;;;;;;;;;5006665;28;20033;-62
2021/06/06 01:27:40;;;;;;;1.85;1.23;;;;;;;;;;5002541;28;20122;-62
2021/06/06 01:30:18;;;;;;;1.55;1.20;;;;;;;;;;5003040;28;20064;-62
2021/06/06 01:33:01;;;;;;;5.88;3.05;;;;;;;;;;5007533;28;20075;-61
2021/06/06 01:35:29;;;;;;;2.42;1.42;;;;;;;;;;5005349;28;20492;-61
2021/06/06 01:38:09;;;;;;;2.17;1.45;;;;;;;;;;4998827;28;20033;-61
2021/06/06 01:40:37;;;;;;;1.90;1.55;;;;;;;;;;4999074;28;20076;-61
2021/06/06 01:43:07;;;;;;;2.17;1.50;;;;;;;;;;5000839;28;20034;-61
2021/06/06 01:46:04;;;;;;;1.38;1.27;;;;;;;;;;5007202;28;20017;-61
2021/06/06 01:48:30;;;;;;;2.80;1.70;;;;;;;;;;4999437;28;20065;-62
2021/06/06 01:51:07;;;;;;;1.55;1.45;;;;;;;;;;5001798;28;20058;-62
2021/06/06 01:53:34;;;;;;;1.50;1.40;;;;;;;;;;4998499;28;20026;-62
2021/06/06 01:56:03;;;;;;;2.20;1.45;;;;;;;;;;5007522;28;20038;-61
2021/06/06 01:58:29;;;;;;;3.65;1.17;;;;;;;;;;5000197;28;20037;-61
2021/06/06 02:00:59;;;;;;;1.83;1.52;;;;;;;;;;5012922;28;20077;-62
2021/06/06 02:03:25;;;;;;;3.00;1.30;;;;;;;;;;5000314;28;20420;-62
2021/06/06 02:05:54;;;;;;;1.35;1.25;;;;;;;;;;5006114;28;20091;-62
2021/06/06 02:08:21;;;;;;;2.22;1.40;;;;;;;;;;5000584;28;20136;-62
2021/06/06 02:10:53;;;;;;;2.28;1.52;;;;;;;;;;5021520;28;20037;-62
2021/06/06 02:13:35;;;;;;;2.30;1.63;;;;;;;;;;4998583;28;20109;-62
2021/06/06 02:16:04;;;;;;;1.50;1.25;;;;;;;;;;4998626;28;20030;-62
2021/06/06 02:18:30;;;;;;;1.33;1.23;;;;;;;;;;4999219;28;20034;-60
2021/06/06 02:20:56;;;;;;;1.65;1.48;;;;;;;;;;5003110;28;20553;-60
2021/06/06 02:23:26;;;;;;;2.33;1.50;;;;;;;;;;5006187;28;20034;-60
2021/06/06 02:26:04;;;;;;;2.30;1.90;;;;;;;;;;4994834;28;20044;-61
2021/06/06 02:28:40;;;;;;;1.85;1.60;;;;;;;;;;4999236;28;20400;-60
2021/06/06 02:31:16;;;;;;;1.58;1.30;;;;;;;;;;5004098;28;20038;-60
2021/06/06 02:33:41;;;;;;;1.70;1.60;;;;;;;;;;5000524;28;20017;-60
2021/06/06 02:36:10;;;;;;;1.60;1.30;;;;;;;;;;5006496;28;20121;-59
2021/06/06 02:38:45;;;;;;;2.10;1.40;;;;;;;;;;5000337;28;20093;-60
2021/06/06 02:41:24;;;;;;;1.40;1.30;;;;;;;;;;4998745;28;20038;-60
2021/06/06 02:44:00;;;;;;;1.35;1.25;;;;;;;;;;5004734;28;20384;-60
2021/06/06 02:46:28;;;;;;;1.40;1.30;;;;;;;;;;5001177;28;20041;-60
2021/06/06 02:48:59;;;;;;;1.60;1.48;;;;;;;;;;4999520;28;20101;-60
2021/06/06 02:51:26;;;;;;;1.50;1.40;;;;;;;;;;4995194;28;20084;-60
2021/06/06 02:54:01;;;;;;;1.90;1.73;;;;;;;;;;4998446;28;20547;-60
2021/06/06 02:56:35;;;;;;;1.48;1.38;;;;;;;;;;5000986;28;20046;-61
2021/06/06 02:59:12;;;;;;;1.55;1.40;;;;;;;;;;4998800;28;20120;-60
2021/06/06 03:01:41;;;;;;;1.65;1.33;;;;;;;;;;5001956;28;20081;-60
2021/06/06 03:04:10;;;;;;;;;;;;;;;;;;5001680;28;20053;-60
2021/06/06 03:06:45;;;;;;;2.13;1.50;;;;;;;;;;5003501;28;19918;-60
2021/06/06 03:09:12;;;;;;;1.40;1.30;;;;;;;;;;5005607;28;20041;-60
2021/06/06 03:11:42;;;;;;;1.50;1.27;;;;;;;;;;5004288;28;20432;-60
2021/06/06 03:14:12;;;;;;;1.75;1.63;;;;;;;;;;5003149;28;20038;-60
2021/06/06 03:16:43;;;;;;;1.92;1.17;;;;;;;;;;5003653;28;20361;-60
2021/06/06 03:19:09;;;;;;;1.50;1.38;;;;;;;;;;5004367;28;20476;-60
2021/06/06 03:21:39;;;;;;;1.80;1.60;;;;;;;;;;5005445;28;20036;-60
2021/06/06 03:24:32;;;;;;;4.20;1.95;;;;;;;;;;5002372;28;20152;-60
2021/06/06 03:26:57;;;;;;;1.95;1.48;;;;;;;;;;5001167;28;20038;-60
2021/06/06 03:29:29;;;;;;;2.88;1.50;;;;;;;;;;5004492;28;20111;-60
2021/06/06 03:32:00;;;;;;;2.90;1.52;;;;;;;;;;5003945;28;20064;-60
2021/06/06 03:34:25;;;;;;;1.50;1.30;;;;;;;;;;5005069;28;20437;-62
2021/06/06 03:36:51;;;;;;;2.10;1.48;;;;;;;;;;5003027;28;20033;-62
2021/06/06 03:39:26;;;;;;;1.75;1.50;;;;;;;;;;5010719;28;20030;-61
2021/06/06 03:41:52;;;;;;;1.77;1.40;;;;;;;;;;5006831;28;20027;-62
2021/06/06 03:44:17;;;;;;;2.00;1.60;;;;;;;;;;5002845;28;20507;-61
2021/06/06 03:46:42;;;;;;;3.55;1.67;;;;;;;;;;5008423;28;20036;-62
2021/06/06 03:49:08;;;;;;;3.08;1.50;;;;;;;;;;5001844;28;20033;-61
2021/06/06 03:51:34;;;;;;;2.40;1.70;;;;;;;;;;5002161;28;20033;-61
2021/06/06 03:54:00;;;;;;;1.20;1.10;;;;;;;;;;5007816;28;20029;-61
2021/06/06 03:56:26;;;;;;;3.47;1.58;;;;;;;;;;5003867;28;20060;-61
2021/06/06 03:58:52;;;;;;;3.03;1.63;;;;;;;;;;5001234;28;20372;-61
2021/06/06 04:01:18;;;;;;;1.45;1.35;;;;;;;;;;5003238;28;20034;-61
2021/06/06 04:03:44;;;;;;;1.63;1.10;;;;;;;;;;5008896;28;20033;-61
2021/06/06 04:06:09;;;;;;;3.17;1.58;;;;;;;;;;5001144;28;20092;-62
2021/06/06 04:08:35;;;;;;;1.42;1.30;;;;;;;;;;5002179;28;20415;-61
2021/06/06 04:11:01;;;;;;;1.20;1.10;;;;;;;;;;5003499;28;20066;-61
2021/06/06 04:13:27;;;;;;;2.10;1.20;;;;;;;;;;5003924;28;20496;-61
2021/06/06 04:15:53;;;;;;;1.75;1.33;;;;;;;;;;5007259;28;20117;-61
2021/06/06 04:18:24;;;;;;;1.90;1.25;;;;;;;;;;5019867;28;20381;-61
2021/06/06 04:20:51;;;;;;;1.60;1.40;;;;;;;;;;5002631;28;20110;-61
2021/06/06 04:23:18;;;;;;;1.77;1.33;;;;;;;;;;5002055;28;20057;-61
2021/06/06 04:25:44;;;;;;;1.77;1.25;;;;;;;;;;5004351;28;20113;-61
2021/06/06 04:28:11;;;;;;;1.80;1.40;;;;;;;;;;5001655;28;20030;-61
2021/06/06 04:30:37;;;;;;;2.22;1.45;;;;;;;;;;5003053;28;20091;-61
2021/06/06 04:33:07;;;;;;;2.22;1.50;;;;;;;;;;4996602;28;20026;-61
2021/06/06 04:35:40;;;;;;;2.38;1.55;;;;;;;;;;5002948;28;20026;-61
2021/06/06 04:38:08;;;;;;;2.60;1.73;;;;;;;;;;5003155;28;20081;-61
2021/06/06 04:40:34;;;;;;;2.17;1.42;;;;;;;;;;5004988;28;20464;-61
2021/06/06 04:43:01;;;;;;;2.42;1.13;;;;;;;;;;5002259;28;20033;-62
2021/06/06 04:45:27;;;;;;;3.78;1.70;;;;;;;;;;5008325;28;20033;-62
2021/06/06 04:47:53;;;;;;;1.55;1.42;;;;;;;;;;5017577;28;20113;-61
2021/06/06 04:50:19;;;;;;;2.05;1.50;;;;;;;;;;4999522;28;20117;-61
2021/06/06 04:52:45;;;;;;;3.78;1.33;;;;;;;;;;5016135;28;20434;-61
2021/06/06 04:55:18;;;;;;;2.40;1.40;;;;;;;;;;5005476;28;20113;-61
2021/06/06 04:57:44;;;;;;;2.42;1.55;;;;;;;;;;4999153;28;20025;-61
2021/06/06 05:00:16;;;;;;;2.47;1.45;;;;;;;;;;4999942;28;20026;-61
2021/06/06 05:02:41;;;;;;;2.70;1.48;;;;;;;;;;5005628;28;20038;-61
2021/06/06 05:05:08;;;;;;;2.85;1.35;;;;;;;;;;5002583;28;20033;-61
2021/06/06 05:07:34;;;;;;;1.48;1.38;;;;;;;;;;4997006;28;20125;-62
2021/06/06 05:10:00;;;;;;;1.50;1.40;;;;;;;;;;5002303;28;20104;-61
2021/06/06 05:12:25;;;;;;;1.85;1.27;;;;;;;;;;5002562;28;20038;-61
2021/06/06 05:14:51;;;;;;;1.80;1.20;;;;;;;;;;5000982;28;20038;-60
2021/06/06 05:17:16;;;;;;;1.80;1.33;;;;;;;;;;5001452;28;20042;-60
2021/06/06 05:19:42;;;;;;;2.95;1.40;;;;;;;;;;5004072;28;20049;-60
2021/06/06 05:22:08;;;;;;;1.92;1.50;;;;;;;;;;4999652;28;20068;-60
2021/06/06 05:24:33;;;;;;;1.65;1.40;;;;;;;;;;4998107;28;20413;-61
2021/06/06 05:26:59;;;;;;;1.75;1.50;;;;;;;;;;5001363;28;20025;-60
2021/06/06 05:29:25;;;;;;;2.28;1.60;;;;;;;;;;5007882;28;20038;-61
2021/06/06 05:31:50;;;;;;;3.38;1.77;;;;;;;;;;5002576;28;20391;-61
2021/06/06 05:34:16;;;;;;;1.77;1.15;;;;;;;;;;5004291;28;20449;-61
2021/06/06 05:36:42;;;;;;;2.10;1.50;;;;;;;;;;5001489;28;20539;-61
2021/06/06 05:39:08;;;;;;;2.53;1.67;;;;;;;;;;5003980;28;20119;-60
2021/06/06 05:41:34;;;;;;;2.03;1.33;;;;;;;;;;5001266;28;20033;-61
2021/06/06 05:43:59;;;;;;;2.13;1.40;;;;;;;;;;4999248;28;20037;-61
2021/06/06 05:46:25;;;;;;;1.63;1.33;;;;;;;;;;5008920;28;20033;-61
2021/06/06 05:48:51;;;;;;;1.40;1.30;;;;;;;;;;5000325;28;20480;-61
2021/06/06 05:51:18;;;;;;;2.63;1.38;;;;;;;;;;4999255;28;20034;-61
2021/06/06 05:53:44;;;;;;;1.27;1.10;;;;;;;;;;5005643;28;20243;-61
2021/06/06 05:56:10;;;;;;;2.35;1.23;;;;;;;;;;5006418;28;20084;-61
2021/06/06 05:58:37;;;;;;;1.45;1.20;;;;;;;;;;4997848;28;20148;-60
2021/06/06 06:01:03;;;;;;;2.05;1.25;;;;;;;;;;5000387;28;20025;-60
2021/06/06 06:03:29;;;;;;;1.95;1.30;;;;;;;;;;5001951;28;20060;-60
2021/06/06 06:05:55;;;;;;;2.88;1.30;;;;;;;;;;4996949;28;20026;-60
2021/06/06 06:08:31;;;;;;;2.47;1.10;;;;;;;;;;5000423;28;20021;-60
2021/06/06 06:10:57;;;;;;;1.38;1.10;;;;;;;;;;5004522;28;20091;-61
2021/06/06 06:13:26;;;;;;;2.70;1.08;;;;;;;;;;5007210;28;20022;-61
2021/06/06 06:15:53;;;;;;;1.57;1.23;;;;;;;;;;4999154;28;20034;-60
2021/06/06 06:18:21;;;;;;;1.67;1.40;;;;;;;;;;5004953;28;20131;-60
2021/06/06 06:20:46;;;;;;;2.80;1.30;;;;;;;;;;5004887;28;20117;-60
2021/06/06 06:23:12;;;;;;;1.88;0.93;;;;;;;;;;5000154;28;20307;-61
2021/06/06 06:25:38;;;;;;;1.63;1.00;;;;;;;;;;5006333;28;20064;-60
2021/06/06 06:28:04;;;;;;;1.15;0.93;;;;;;;;;;5020971;28;20022;-61
2021/06/06 06:30:32;;;;;;;1.60;1.10;;;;;;;;;;5000403;28;20030;-61
2021/06/06 06:32:58;;;;;;;1.75;1.15;;;;;;;;;;5002697;28;20033;-61
2021/06/06 06:35:25;;;;;;;2.00;1.10;;;;;;;;;;5000974;28;20026;-61
2021/06/06 06:37:52;;;;;;;1.42;1.00;;;;;;;;;;5005940;28;20106;-61
2021/06/06 06:40:20;;;;;;;1.40;1.10;;;;;;;;;;4996326;28;20065;-61
2021/06/06 06:42:46;;;;;;;1.73;1.10;;;;;;;;;;4998597;28;20019;-61
2021/06/06 06:45:15;;;;;;;1.27;1.10;;;;;;;;;;5006382;28;20060;-60
2021/06/06 06:47:40;;;;;;;1.52;1.00;;;;;;;;;;4999343;28;20030;-61
2021/06/06 06:50:08;;;;;;;1.30;0.80;;;;;;;;;;4999798;28;20026;-60
2021/06/06 06:52:36;;;;;;;0.68;0.60;;;;;;;;;;5000629;28;20042;-61
2021/06/06 06:55:28;;;;;;;1.25;0.55;;;;;;;;;;4995125;28;20029;-61
2021/06/06 06:57:55;;;;;;;0.73;0.50;;;;;;;;;;4997803;28;20569;-60
2021/06/06 07:00:25;;;;;;;0.75;0.73;;;;;;;;;;5000147;28;20038;-60
2021/06/06 07:02:50;;;;;;;1.00;0.60;;;;;;;;;;5000069;28;20487;-61
2021/06/06 07:05:15;;;;;;;1.40;0.93;;;;;;;;;;4997912;28;20042;-60
2021/06/06 07:07:41;;;;;;;1.85;1.00;;;;;;;;;;5001767;28;20121;-60
2021/06/06 07:10:11;;;;;;;1.00;0.85;;;;;;;;;;5002848;28;20022;-60
2021/06/06 07:12:38;;;;;;;1.20;0.68;;;;;;;;;;4999012;28;20062;-60
2021/06/06 07:15:07;;;;;;;2.13;0.60;;;;;;;;;;4998100;28;20759;-61
2021/06/06 07:17:32;;;;;;;1.50;1.20;;;;;;;;;;5004977;28;20032;-61
2021/06/06 07:19:58;;;;;;;1.02;0.63;;;;;;;;;;4999661;28;20030;-61
2021/06/06 07:22:24;;;;;;;1.15;0.90;;;;;;;;;;4996759;28;20031;-61
2021/06/06 07:24:49;;;;;;;1.55;0.63;;;;;;;;;;5005450;28;20500;-61
2021/06/06 07:27:15;;;;;;;0.57;0.47;;;;;;;;;;5002064;28;20034;-61
2021/06/06 07:29:40;;;;;;;1.33;1.10;;;;;;;;;;4998240;28;20121;-61
2021/06/06 07:32:06;;;;;;;6.13;2.20;;;;;;;;;;4999226;28;20440;-61
2021/06/06 07:34:32;;;;;;;3.33;1.63;;;;;;;;;;4999226;28;20208;-61
2021/06/06 07:37:01;;;;;;;3.75;1.83;;;;;;;;;;4999970;28;20048;-61
2021/06/06 07:39:27;;;;;;;2.05;1.55;;;;;;;;;;4998001;28;20117;-62
2021/06/06 07:41:53;;;;;;;2.58;1.70;;;;;;;;;;5001077;28;20113;-61
2021/06/06 07:44:20;;;;;;;1.70;1.20;;;;;;;;;;5001269;28;20027;-61
2021/06/06 07:46:46;;;;;;;1.00;0.60;;;;;;;;;;5001418;28;20629;-62
2021/06/06 07:49:12;;;;;;;0.90;0.52;;;;;;;;;;4998869;28;20030;-61
2021/06/06 07:51:37;;;;;;;0.82;0.70;;;;;;;;;;5004264;28;20104;-61
2021/06/06 07:54:04;;;;;;;1.38;0.95;;;;;;;;;;5004565;28;20447;-62
2021/06/06 07:56:29;;;;;;;0.60;0.50;;;;;;;;;;5000021;28;20029;-61
2021/06/06 07:58:55;;;;;;;0.68;0.45;;;;;;;;;;5003619;28;20407;-62
2021/06/06 08:01:21;;;;;;;0.77;0.57;;;;;;;;;;5018313;28;20069;-61
2021/06/06 08:03:49;;;;;;;1.02;0.90;;;;;;;;;;5004414;28;20067;-61
2021/06/06 08:06:14;;;;;;;0.55;0.40;;;;;;;;;;5002866;28;20021;-61
2021/06/06 08:08:40;;;;;;;0.60;0.60;;;;;;;;;;5004271;28;20480;-61
2021/06/06 08:11:07;;;;;;;1.42;0.68;;;;;;;;;;5000031;28;20057;-61
2021/06/06 08:13:36;;;;;;;0.85;0.50;;;;;;;;;;5000366;28;20480;-61
2021/06/06 08:16:03;;;;;;;1.08;0.50;;;;;;;;;;5009846;28;20064;-61
2021/06/06 08:18:38;;;;;;;0.30;0.30;;;;;;;;;;5007825;28;20420;-62
2021/06/06 08:21:11;;;;;;;0.65;0.60;;;;;;;;;;4997959;28;20034;-62
2021/06/06 08:23:38;;;;;;;1.17;0.40;;;;;;;;;;5006278;28;20045;-61
2021/06/06 08:26:04;;;;;;;0.82;0.47;;;;;;;;;;5001976;28;20558;-61
2021/06/06 08:28:30;;;;;;;1.48;0.50;;;;;;;;;;5000729;28;20037;-61
2021/06/06 08:31:00;;;;;;;0.50;0.40;;;;;;;;;;5012672;28;20512;-61
2021/06/06 08:33:27;;;;;;;0.82;0.60;;;;;;;;;;5002986;28;20427;-61
2021/06/06 08:35:56;;;;;;;0.50;0.40;;;;;;;;;;5003027;28;20096;-59
2021/06/06 08:38:23;;;;;;;1.38;0.45;;;;;;;;;;5002620;28;20069;-59
2021/06/06 08:41:30;;;;;;;0.65;0.60;;;;;;;;;;5004099;28;20460;-60
2021/06/06 08:44:16;;;;;;;0.90;0.60;;;;;;;;;;4998553;28;20219;-61
2021/06/06 08:47:12;;;;;;;1.98;1.20;;;;;;;;;;4998133;28;20069;-59
2021/06/06 08:49:44;;;;;;;0.65;0.65;;;;;;;;;;5005402;28;20046;-59
2021/06/06 08:52:14;;;;;;;0.70;0.70;;;;;;;;;;5000994;28;20095;-60
2021/06/06 08:55:05;;;;;;;1.00;0.70;;;;;;;;;;5002294;28;20026;-60
2021/06/06 08:57:41;;;;;;;0.82;0.50;;;;;;;;;;5003142;28;20437;-59
2021/06/06 09:00:21;;;;;;;0.60;0.50;;;;;;;;;;5002319;28;20041;-59
2021/06/06 09:02:49;;;;;;;0.70;0.60;;;;;;;;;;5001408;28;20451;-59
2021/06/06 09:05:35;;;;;;;0.63;0.40;;;;;;;;;;4998374;28;20041;-59
2021/06/06 09:08:02;;;;;;;2.13;0.50;;;;;;;;;;5000850;28;20021;-59
2021/06/06 09:10:31;;;;;;;1.00;0.60;;;;;;;;;;5001586;28;20030;-59
2021/06/06 09:12:58;;;;;;;0.40;0.40;;;;;;;;;;4999909;28;20034;-59
2021/06/06 09:15:26;;;;;;;1.05;0.55;;;;;;;;;;5007288;28;20486;-61
2021/06/06 09:17:56;;;;;;;0.50;0.45;;;;;;;;;;5005061;28;20069;-59
2021/06/06 09:20:29;;;;;;;0.50;0.50;;;;;;;;;;5004291;28;20326;-59
2021/06/06 09:23:09;;;;;;;2.38;0.65;;;;;;;;;;5003672;28;20037;-60
2021/06/06 09:25:41;;;;;;;0.60;0.60;;;;;;;;;;5002047;28;20037;-60
2021/06/06 09:28:18;;;;;;;1.33;0.80;;;;;;;;;;5001319;28;20108;-60
2021/06/06 09:30:44;;;;;;;1.30;1.20;;;;;;;;;;4997685;28;20064;-59
2021/06/06 09:33:11;;;;;;;1.58;1.02;;;;;;;;;;5008899;28;20029;-60
2021/06/06 09:35:50;;;;;;;2.05;1.02;;;;;;;;;;5000835;28;20385;-60
2021/06/06 09:38:23;;;;;;;1.17;0.75;;;;;;;;;;5000783;28;20503;-61
2021/06/06 09:40:51;;;;;;;1.20;1.02;;;;;;;;;;4997686;28;20101;-60
2021/06/06 09:43:31;;;;;;;7.57;4.82;;;;;;;;;;5000778;28;20081;-60
2021/06/06 09:46:09;;;;;;;9.15;5.65;;;;;;;;;;5003061;28;20025;-60
2021/06/06 09:48:40;;;;;;;12.05;6.60;;;;;;;;;;5000494;28;20116;-60
2021/06/06 09:51:27;;;;;;;14.18;7.47;;;;;;;;;;5001227;28;20029;-60
2021/06/06 09:53:57;;;;;;;12.77;6.82;;;;;;;;;;5001218;28;20040;-60
2021/06/06 09:56:29;;;;;;;13.05;7.30;;;;;;;;;;5000292;28;20030;-60
2021/06/06 09:59:09;;;;;;;11.65;6.75;;;;;;;;;;5005182;28;20025;-59
2021/06/06 10:01:38;;;;;;;12.85;7.55;;;;;;;;;;5002790;28;20030;-60
2021/06/06 10:04:07;;;;;;;14.10;7.80;;;;;;;;;;5001575;28;20022;-60
2021/06/06 10:06:36;;;;;;;15.20;8.70;;;;;;;;;;5002573;28;20512;-60
2021/06/06 10:09:07;;;;;;;15.95;7.97;;;;;;;;;;4996797;28;20559;-59
2021/06/06 10:11:49;;;;;;;14.73;7.72;;;;;;;;;;5004705;28;20030;-60
2021/06/06 10:14:19;;;;;;;17.30;8.93;;;;;;;;;;5004537;28;20578;-60
2021/06/06 10:16:46;;;;;;;17.48;9.00;;;;;;;;;;4999844;28;20025;-60
2021/06/06 10:19:26;;;;;;;16.23;8.93;;;;;;;;;;4996279;28;20038;-60
2021/06/06 10:21:53;;;;;;;17.20;8.23;;;;;;;;;;4999711;28;20555;-60
2021/06/06 10:24:42;;;;;;;15.60;9.05;;;;;;;;;;5001744;28;20328;-59
2021/06/06 10:27:15;;;;;;;18.65;9.63;;;;;;;;;;4998815;28;20113;-60
2021/06/06 10:29:52;;;;;;;19.13;10.82;;;;;;;;;;5001048;28;20041;-60
2021/06/06 10:32:33;;;;;;;18.15;10.23;;;;;;;;;;5001326;28;20022;-60
2021/06/06 10:35:13;;;;;;;17.23;9.70;;;;;;;;;;4996853;28;20400;-60
2021/06/06 10:37:40;;;;;;;15.52;9.10;;;;;;;;;;5003214;28;20045;-60
2021/06/06 10:40:22;;;;;;;18.58;9.75;;;;;;;;;;4999613;28;20029;-60
2021/06/06 10:43:04;;;;;;;17.00;8.82;;;;;;;;;;4994358;28;20384;-60
2021/06/06 10:45:48;;;;;;;16.60;8.48;;;;;;;;;;5003622;28;20475;-60
2021/06/06 10:48:29;;;;;;;17.08;8.88;;;;;;;;;;5000060;28;20515;-60
2021/06/06 10:51:13;;;;;;;17.33;9.68;;;;;;;;;;4998989;28;20084;-60
2021/06/06 10:53:50;;;;;;;21.08;10.45;;;;;;;;;;5001927;28;20030;-60
2021/06/06 10:56:32;;;;;;;24.23;11.32;;;;;;;;;;5001029;28;20033;-60
2021/06/06 10:59:04;;;;;;;26.45;12.35;;;;;;;;;;5000149;28;20300;-58
2021/06/06 11:01:41;;;;;;;27.70;12.98;;;;;;;;;;5001724;28;20060;-60
2021/06/06 11:04:29;;;;;;;26.27;12.27;;;;;;;;;;4996702;28;20420;-60
2021/06/06 11:07:17;;;;;;;26.02;11.50;;;;;;;;;;5000637;28;20030;-60
2021/06/06 11:09:48;;;;;;;24.65;11.55;;;;;;;;;;5000457;28;20026;-60
2021/06/06 11:12:29;;;;;;;28.23;12.48;;;;;;;;;;4997765;28;20030;-60
2021/06/06 11:14:55;;;;;;;24.65;12.35;;;;;;;;;;5006588;28;20021;-60
2021/06/06 11:17:37;;;;;;;23.58;11.77;;;;;;;;;;5003148;28;20412;-60
2021/06/06 11:20:15;;;;;;;23.67;12.27;;;;;;;;;;4997564;28;20022;-60
2021/06/06 11:22:48;;;;;;;27.48;14.07;;;;;;;;;;5018953;28;20033;-60
2021/06/06 11:25:46;;;;;;;30.52;15.35;;;;;;;;;;5003264;28;20072;-60
2021/06/06 11:28:33;;;;;;;33.50;16.38;;;;;;;;;;4990088;28;20389;-60
2021/06/06 11:31:00;;;;;;;34.92;15.82;;;;;;;;;;5005286;28;20543;-60
2021/06/06 11:33:45;;;;;;;32.33;15.13;;;;;;;;;;5004948;28;20018;-61
2021/06/06 11:36:11;;;;;;;32.45;15.18;;;;;;;;;;5001987;28;20057;-61
2021/06/06 11:38:47;;;;;;;32.08;15.15;;;;;;;;;;5002077;28;20034;-61
2021/06/06 11:41:24;;;;;;;29.40;14.98;;;;;;;;;;5001227;28;20029;-61
2021/06/06 11:44:14;;;;;;;27.05;12.75;;;;;;;;;;5003428;28;20033;-60
2021/06/06 11:46:42;;;;;;;27.83;14.48;;;;;;;;;;5002462;28;20128;-60
2021/06/06 11:49:36;;;;;;;26.08;14.00;;;;;;;;;;5012255;28;20036;-60
2021/06/06 11:52:11;;;;;;;26.85;14.30;;;;;;;;;;5004480;28;20496;-61
2021/06/06 11:54:47;;;;;;;29.50;15.27;;;;;;;;;;5000643;28;20523;-61
2021/06/06 11:57:25;;;;;;;28.90;14.50;;;;;;;;;;5000763;28;20589;-61
2021/06/06 12:00:11;;;;;;;33.08;16.80;;;;;;;;;;5003359;28;20030;-61
2021/06/06 12:02:37;;;;;;;35.95;17.92;;;;;;;;;;5001045;28;20066;-60
2021/06/06 12:05:12;;;;;;;33.22;16.80;;;;;;;;;;5007438;28;20120;-61
2021/06/06 12:07:43;;;;;;;35.50;17.90;;;;;;;;;;5005109;28;20682;-61
2021/06/06 12:10:21;;;;;;;37.00;18.77;;;;;;;;;;5004007;28;20437;-60
2021/06/06 12:12:50;;;;;;;33.63;17.08;;;;;;;;;;5017118;28;20097;-60
2021/06/06 12:15:32;;;;;;;39.55;20.52;;;;;;;;;;5005016;28;20069;-60
2021/06/06 12:18:14;;;;;;;33.15;18.10;;;;;;;;;;4998895;28;20037;-61
2021/06/06 12:20:58;;;;;;;39.05;19.48;;;;;;;;;;5000264;28;20029;-61
2021/06/06 12:23:36;;;;;;;40.75;19.85;;;;;;;;;;5024955;28;20554;-61
2021/06/06 12:26:11;;;;;;;38.65;20.02;;;;;;;;;;5002229;28;20398;-61
2021/06/06 12:28:40;;;;;;;38.75;19.15;;;;;;;;;;5002833;28;20124;-60
2021/06/06 12:31:18;;;;;;;36.00;18.80;;;;;;;;;;5007359;28;20188;-61
2021/06/06 12:33:43;;;;;;;39.63;20.80;;;;;;;;;;4999483;28;20038;-61
2021/06/06 12:36:15;;;;;;;44.58;21.60;;;;;;;;;;5002504;28;20041;-61
2021/06/06 12:38:43;;;;;;;41.92;21.13;;;;;;;;;;5004538;28;20025;-61
2021/06/06 12:41:09;;;;;;;45.55;21.88;;;;;;;;;;5006970;28;20042;-61
2021/06/06 12:43:41;;;;;;;41.03;20.13;;;;;;;;;;5002003;28;20036;-61
2021/06/06 12:46:10;;;;;;;38.75;20.05;;;;;;;;;;5000000;28;20091;-61
2021/06/06 12:49:16;;;;;;;44.45;22.52;;;;;;;;;;5003355;28;20117;-61
2021/06/06 12:51:48;;;;;;;42.08;21.00;;;;;;;;;;4986398;28;20038;-61
2021/06/06 12:54:26;;;;;;;43.47;22.27;;;;;;;;;;4997403;28;20045;-61
2021/06/06 12:57:02;;;;;;;41.75;20.25;;;;;;;;;;5008379;28;20395;-61
2021/06/06 12:59:28;;;;;;;48.75;21.83;;;;;;;;;;5001421;28;20496;-61
2021/06/06 13:02:11;;;;;;;38.13;19.63;;;;;;;;;;5001851;28;20034;-61
2021/06/06 13:04:36;;;;;;;41.53;22.00;;;;;;;;;;5007512;28;20479;-61
2021/06/06 13:07:02;;;;;;;37.13;19.90;;;;;;;;;;5003729;28;20030;-61
2021/06/06 13:09:31;;;;;;;41.42;21.73;;;;;;;;;;5001906;28;20501;-61
2021/06/06 13:12:12;;;;;;;45.70;22.55;;;;;;;;;;4999519;28;20176;-61
2021/06/06 13:14:50;;;;;;;43.35;23.25;;;;;;;;;;4999774;28;20073;-61
2021/06/06 13:17:30;;;;;;;41.78;20.35;;;;;;;;;;5001184;28;20060;-61
2021/06/06 13:20:14;;;;;;;;;;;;;;;;;;5002805;28;20108;-61
2021/06/06 13:23:19;;;;;;;40.03;19.85;;;;;;;;;;5003018;28;19921;-62
2021/06/06 13:25:48;;;;;;;40.22;20.33;;;;;;;;;;5007803;28;20578;-62
2021/06/06 13:28:15;;;;;;;40.38;19.35;;;;;;;;;;5004966;28;20120;-61
2021/06/06 13:30:44;;;;;;;43.42;21.05;;;;;;;;;;5002710;28;20496;-61
2021/06/06 13:33:11;;;;;;;;;;;;;;;;;;5001769;28;20408;-61
2021/06/06 13:35:37;;;;;;;40.30;20.38;;;;;;;;;;5002448;28;19919;-61
2021/06/06 13:38:03;;;;;;;42.65;21.38;;;;;;;;;;5004145;28;20123;-61
2021/06/06 13:40:35;;;;;;;40.10;20.63;;;;;;;;;;5001359;28;20455;-61
2021/06/06 13:43:01;;;;;;;39.05;19.92;;;;;;;;;;4999385;28;20032;-61
2021/06/06 13:45:28;;;;;;;40.22;20.60;;;;;;;;;;5002314;28;20033;-61
2021/06/06 13:47:55;;;;;;;41.08;20.67;;;;;;;;;;5007581;28;20040;-61
2021/06/06 13:50:22;;;;;;;42.45;21.67;;;;;;;;;;5000024;28;20034;-61
2021/06/06 13:52:49;;;;;;;41.30;20.73;;;;;;;;;;5001945;28;20025;-61
2021/06/06 13:55:19;;;;;;;42.20;21.10;;;;;;;;;;5002823;28;20071;-61
2021/06/06 13:57:45;;;;;;;46.80;22.17;;;;;;;;;;5000059;28;20474;-61
2021/06/06 14:00:14;;;;;;;39.83;21.67;;;;;;;;;;5001385;28;20037;-61
2021/06/06 14:02:42;;;;;;;;;;;;;;;;;;4999911;28;20511;-61
2021/06/06 14:05:08;;;;;;;47.15;23.05;;;;;;;;;;5002061;28;19949;-60
2021/06/06 14:07:33;;;;;;;45.05;23.00;;;;;;;;;;4999099;28;20115;-60
2021/06/06 14:09:59;;;;;;;45.78;23.20;;;;;;;;;;5003351;28;20030;-60
2021/06/06 14:12:24;;;;;;;46.00;23.42;;;;;;;;;;5001690;28;20068;-60
2021/06/06 14:14:50;;;;;;;45.28;23.42;;;;;;;;;;5000042;28;20101;-60
2021/06/06 14:17:15;;;;;;;48.88;24.52;;;;;;;;;;5001644;28;20080;-60
2021/06/06 14:19:41;;;;;;;47.60;23.27;;;;;;;;;;4999977;28;20088;-60
2021/06/06 14:22:07;;;;;;;52.92;27.40;;;;;;;;;;5001405;28;20061;-61
2021/06/06 14:24:35;;;;;;;52.83;25.75;;;;;;;;;;5000072;28;20026;-60
2021/06/06 14:27:06;;;;;;;51.13;25.05;;;;;;;;;;5000863;28;20108;-61
2021/06/06 14:29:33;;;;;;;52.95;26.90;;;;;;;;;;5000929;28;20026;-60
2021/06/06 14:31:59;;;;;;;57.60;26.40;;;;;;;;;;4997649;28;20037;-60
2021/06/06 14:34:24;;;;;;;68.47;33.38;;;;;;;;;;4998420;28;20013;-60
2021/06/06 14:36:53;;;;;;;68.88;32.47;;;;;;;;;;4999722;28;20026;-60
2021/06/06 14:39:19;;;;;;;58.22;28.65;;;;;;;;;;4999925;28;20064;-60
2021/06/06 14:41:46;;;;;;;52.58;26.17;;;;;;;;;;4997362;28;20026;-61
2021/06/06 14:44:12;;;;;;;51.88;26.75;;;;;;;;;;4999927;28;20038;-60
2021/06/06 14:46:38;;;;;;;52.58;25.70;;;;;;;;;;5005772;28;20026;-60
2021/06/06 14:49:05;;;;;;;59.13;30.95;;;;;;;;;;5000870;28;20504;-60
2021/06/06 14:51:33;;;;;;;57.70;30.30;;;;;;;;;;4999780;28;20026;-61
2021/06/06 14:53:59;;;;;;;54.20;28.00;;;;;;;;;;5000563;28;20467;-61
2021/06/06 14:56:24;;;;;;;54.83;27.33;;;;;;;;;;5001135;28;20029;-61
2021/06/06 14:58:50;;;;;;;53.38;27.00;;;;;;;;;;4999909;28;20407;-61